sensor_id;sensor_type;location;lat;lon;timestamp;P1;durP1;ratioP1;P2;durP2;ratioP2
16634;SDS011;8431;52.458;9.998;2023-02-01T00:00:32;17.63;;;3.50;;
16634;SDS011;8431;52.458;9.998;2023-02-01T00:02:59;14.95;;;3.63;;
16634;SDS011;8431;52.458;9.998;2023-02-01T00:05:27;18.70;;;3.38;;
16634;SDS011;8431;52.458;9.998;2023-02-01T00:07:54;17.33;;;3.22;;
16634;SDS011;8431;52.458;9.998;2023-02-01T00:10:22;12.98;;;2.78;;
16634;SDS011;8431;52.458;9.998;2023-02-01T00:12:49;15.70;;;3.05;;
16634;SDS011;8431;52.458;9.998;2023-02-01T00:15:16;12.50;;;3.15;;
16634;SDS011;8431;52.458;9.998;2023-02-01T00:17:44;15.52;;;2.85;;
16634;SDS011;8431;52.458;9.998;2023-02-01T00:20:12;12.63;;;3.15;;
16634;SDS011;8431;52.458;9.998;2023-02-01T00:22:39;13.20;;;3.45;;
16634;SDS011;8431;52.458;9.998;2023-02-01T00:25:06;17.35;;;3.08;;
16634;SDS011;8431;52.458;9.998;2023-02-01T00:27:35;17.92;;;3.03;;
16634;SDS011;8431;52.458;9.998;2023-02-01T00:30:02;11.20;;;3.33;;
16634;SDS011;8431;52.458;9.998;2023-02-01T00:32:29;14.93;;;4.65;;
16634;SDS011;8431;52.458;9.998;2023-02-01T00:34:57;15.80;;;3.35;;
16634;SDS011;8431;52.458;9.998;2023-02-01T00:37:24;16.02;;;3.65;;
16634;SDS011;8431;52.458;9.998;2023-02-01T00:39:51;19.40;;;3.08;;
16634;SDS011;8431;52.458;9.998;2023-02-01T00:42:20;16.08;;;4.30;;
16634;SDS011;8431;52.458;9.998;2023-02-01T00:47:45;15.77;;;3.20;;
16634;SDS011;8431;52.458;9.998;2023-02-01T00:50:12;18.92;;;4.00;;
16634;SDS011;8431;52.458;9.998;2023-02-01T00:52:39;18.40;;;3.70;;
16634;SDS011;8431;52.458;9.998;2023-02-01T00:55:06;12.90;;;2.72;;
16634;SDS011;8431;52.458;9.998;2023-02-01T00:57:33;10.52;;;2.72;;
16634;SDS011;8431;52.458;9.998;2023-02-01T01:00:00;19.70;;;4.05;;
16634;SDS011;8431;52.458;9.998;2023-02-01T01:02:27;14.25;;;3.45;;
16634;SDS011;8431;52.458;9.998;2023-02-01T01:04:56;22.42;;;4.05;;
16634;SDS011;8431;52.458;9.998;2023-02-01T01:07:23;17.05;;;2.92;;
16634;SDS011;8431;52.458;9.998;2023-02-01T01:09:50;18.25;;;4.93;;
16634;SDS011;8431;52.458;9.998;2023-02-01T01:12:17;17.58;;;4.57;;
16634;SDS011;8431;52.458;9.998;2023-02-01T01:14:44;17.25;;;3.78;;
16634;SDS011;8431;52.458;9.998;2023-02-01T01:17:12;19.80;;;3.67;;
16634;SDS011;8431;52.458;9.998;2023-02-01T01:19:39;16.20;;;3.42;;
16634;SDS011;8431;52.458;9.998;2023-02-01T01:22:07;13.82;;;3.03;;
16634;SDS011;8431;52.458;9.998;2023-02-01T01:24:34;13.75;;;3.28;;
16634;SDS011;8431;52.458;9.998;2023-02-01T01:27:01;14.43;;;4.00;;
16634;SDS011;8431;52.458;9.998;2023-02-01T01:29:28;13.23;;;3.13;;
16634;SDS011;8431;52.458;9.998;2023-02-01T01:31:55;17.73;;;3.15;;
16634;SDS011;8431;52.458;9.998;2023-02-01T01:34:22;16.92;;;4.68;;
16634;SDS011;8431;52.458;9.998;2023-02-01T01:36:49;17.38;;;3.80;;
16634;SDS011;8431;52.458;9.998;2023-02-01T01:39:18;13.98;;;3.90;;
16634;SDS011;8431;52.458;9.998;2023-02-01T01:41:45;13.52;;;3.10;;
16634;SDS011;8431;52.458;9.998;2023-02-01T01:47:17;14.38;;;4.15;;
16634;SDS011;8431;52.458;9.998;2023-02-01T01:49:44;16.60;;;3.72;;
16634;SDS011;8431;52.458;9.998;2023-02-01T01:52:11;15.98;;;3.13;;
16634;SDS011;8431;52.458;9.998;2023-02-01T01:54:41;14.65;;;3.83;;
16634;SDS011;8431;52.458;9.998;2023-02-01T01:57:11;15.20;;;3.47;;
16634;SDS011;8431;52.458;9.998;2023-02-01T01:59:41;15.98;;;3.83;;
16634;SDS011;8431;52.458;9.998;2023-02-01T02:02:13;15.82;;;3.92;;
16634;SDS011;8431;52.458;9.998;2023-02-01T02:04:40;17.70;;;3.35;;
16634;SDS011;8431;52.458;9.998;2023-02-01T02:07:08;20.25;;;3.53;;
16634;SDS011;8431;52.458;9.998;2023-02-01T02:09:38;17.33;;;3.92;;
16634;SDS011;8431;52.458;9.998;2023-02-01T02:12:08;16.92;;;4.00;;
16634;SDS011;8431;52.458;9.998;2023-02-01T02:14:35;18.08;;;4.03;;
16634;SDS011;8431;52.458;9.998;2023-02-01T02:17:07;19.85;;;4.18;;
16634;SDS011;8431;52.458;9.998;2023-02-01T02:23:03;16.02;;;3.20;;
16634;SDS011;8431;52.458;9.998;2023-02-01T02:25:57;13.85;;;3.60;;
16634;SDS011;8431;52.458;9.998;2023-02-01T02:28:52;13.30;;;3.20;;
16634;SDS011;8431;52.458;9.998;2023-02-01T02:34:51;15.00;;;3.50;;
16634;SDS011;8431;52.458;9.998;2023-02-01T02:37:22;21.20;;;4.63;;
16634;SDS011;8431;52.458;9.998;2023-02-01T02:39:59;14.93;;;3.60;;
16634;SDS011;8431;52.458;9.998;2023-02-01T02:42:35;14.10;;;2.90;;
16634;SDS011;8431;52.458;9.998;2023-02-01T02:45:26;13.73;;;3.58;;
16634;SDS011;8431;52.458;9.998;2023-02-01T02:48:17;16.33;;;3.55;;
16634;SDS011;8431;52.458;9.998;2023-02-01T02:50:51;15.88;;;3.55;;
16634;SDS011;8431;52.458;9.998;2023-02-01T02:53:46;12.85;;;3.30;;
16634;SDS011;8431;52.458;9.998;2023-02-01T02:56:37;15.07;;;3.63;;
16634;SDS011;8431;52.458;9.998;2023-02-01T02:59:23;13.93;;;3.22;;
16634;SDS011;8431;52.458;9.998;2023-02-01T03:02:15;18.85;;;3.85;;
16634;SDS011;8431;52.458;9.998;2023-02-01T03:05:05;12.48;;;3.13;;
16634;SDS011;8431;52.458;9.998;2023-02-01T03:10:30;13.60;;;3.55;;
16634;SDS011;8431;52.458;9.998;2023-02-01T03:13:06;13.02;;;3.28;;
16634;SDS011;8431;52.458;9.998;2023-02-01T03:15:38;13.10;;;3.45;;
16634;SDS011;8431;52.458;9.998;2023-02-01T03:18:10;18.48;;;3.33;;
16634;SDS011;8431;52.458;9.998;2023-02-01T03:20:43;14.52;;;3.08;;
16634;SDS011;8431;52.458;9.998;2023-02-01T03:23:16;12.65;;;3.92;;
16634;SDS011;8431;52.458;9.998;2023-02-01T03:25:46;14.00;;;2.88;;
16634;SDS011;8431;52.458;9.998;2023-02-01T03:28:15;13.40;;;3.38;;
16634;SDS011;8431;52.458;9.998;2023-02-01T03:30:46;12.45;;;3.05;;
16634;SDS011;8431;52.458;9.998;2023-02-01T03:33:15;12.45;;;3.67;;
16634;SDS011;8431;52.458;9.998;2023-02-01T03:35:50;15.95;;;3.97;;
16634;SDS011;8431;52.458;9.998;2023-02-01T03:38:39;15.00;;;2.80;;
16634;SDS011;8431;52.458;9.998;2023-02-01T03:41:15;13.10;;;3.25;;
16634;SDS011;8431;52.458;9.998;2023-02-01T03:43:50;17.20;;;3.15;;
16634;SDS011;8431;52.458;9.998;2023-02-01T03:46:22;13.40;;;3.22;;
16634;SDS011;8431;52.458;9.998;2023-02-01T03:48:57;16.60;;;3.80;;
16634;SDS011;8431;52.458;9.998;2023-02-01T03:51:28;15.65;;;3.42;;
16634;SDS011;8431;52.458;9.998;2023-02-01T03:53:58;12.45;;;3.50;;
16634;SDS011;8431;52.458;9.998;2023-02-01T03:56:27;11.23;;;3.22;;
16634;SDS011;8431;52.458;9.998;2023-02-01T03:58:57;13.48;;;3.88;;
16634;SDS011;8431;52.458;9.998;2023-02-01T04:01:25;16.30;;;3.85;;
16634;SDS011;8431;52.458;9.998;2023-02-01T04:03:53;11.70;;;3.13;;
16634;SDS011;8431;52.458;9.998;2023-02-01T04:06:20;20.40;;;3.88;;
16634;SDS011;8431;52.458;9.998;2023-02-01T04:11:56;14.93;;;3.30;;
16634;SDS011;8431;52.458;9.998;2023-02-01T04:14:23;14.23;;;3.83;;
16634;SDS011;8431;52.458;9.998;2023-02-01T04:16:50;15.10;;;3.47;;
16634;SDS011;8431;52.458;9.998;2023-02-01T04:19:17;14.50;;;3.35;;
16634;SDS011;8431;52.458;9.998;2023-02-01T04:21:44;13.75;;;3.13;;
16634;SDS011;8431;52.458;9.998;2023-02-01T04:24:14;21.17;;;3.83;;
16634;SDS011;8431;52.458;9.998;2023-02-01T04:26:41;13.65;;;3.20;;
16634;SDS011;8431;52.458;9.998;2023-02-01T04:29:10;13.73;;;3.60;;
16634;SDS011;8431;52.458;9.998;2023-02-01T04:31:37;20.17;;;3.58;;
16634;SDS011;8431;52.458;9.998;2023-02-01T04:34:04;11.07;;;2.92;;
16634;SDS011;8431;52.458;9.998;2023-02-01T04:36:31;17.92;;;3.80;;
16634;SDS011;8431;52.458;9.998;2023-02-01T04:38:58;9.73;;;3.58;;
16634;SDS011;8431;52.458;9.998;2023-02-01T04:41:25;14.07;;;3.47;;
16634;SDS011;8431;52.458;9.998;2023-02-01T04:43:52;15.20;;;2.80;;
16634;SDS011;8431;52.458;9.998;2023-02-01T04:46:20;13.68;;;3.97;;
16634;SDS011;8431;52.458;9.998;2023-02-01T04:48:47;13.23;;;3.20;;
16634;SDS011;8431;52.458;9.998;2023-02-01T04:51:14;15.30;;;3.17;;
16634;SDS011;8431;52.458;9.998;2023-02-01T04:53:43;9.70;;;3.00;;
16634;SDS011;8431;52.458;9.998;2023-02-01T04:56:10;12.27;;;2.67;;
16634;SDS011;8431;52.458;9.998;2023-02-01T04:58:37;14.90;;;3.58;;
16634;SDS011;8431;52.458;9.998;2023-02-01T05:01:04;17.75;;;4.28;;
16634;SDS011;8431;52.458;9.998;2023-02-01T05:03:34;14.85;;;3.97;;
16634;SDS011;8431;52.458;9.998;2023-02-01T05:06:02;15.90;;;3.80;;
16634;SDS011;8431;52.458;9.998;2023-02-01T05:08:30;17.58;;;3.67;;
16634;SDS011;8431;52.458;9.998;2023-02-01T05:10:57;11.63;;;3.63;;
16634;SDS011;8431;52.458;9.998;2023-02-01T05:13:27;9.98;;;3.13;;
16634;SDS011;8431;52.458;9.998;2023-02-01T05:16:12;14.82;;;3.33;;
16634;SDS011;8431;52.458;9.998;2023-02-01T05:18:40;7.78;;;3.22;;
16634;SDS011;8431;52.458;9.998;2023-02-01T05:21:07;15.48;;;3.75;;
16634;SDS011;8431;52.458;9.998;2023-02-01T05:23:34;12.77;;;3.47;;
16634;SDS011;8431;52.458;9.998;2023-02-01T05:26:22;14.60;;;3.60;;
16634;SDS011;8431;52.458;9.998;2023-02-01T05:28:49;12.07;;;3.17;;
16634;SDS011;8431;52.458;9.998;2023-02-01T05:31:16;17.02;;;3.95;;
16634;SDS011;8431;52.458;9.998;2023-02-01T05:33:45;17.63;;;4.20;;
16634;SDS011;8431;52.458;9.998;2023-02-01T05:36:12;13.05;;;3.38;;
16634;SDS011;8431;52.458;9.998;2023-02-01T05:38:40;11.95;;;3.40;;
16634;SDS011;8431;52.458;9.998;2023-02-01T05:41:07;17.52;;;3.38;;
16634;SDS011;8431;52.458;9.998;2023-02-01T05:43:34;17.08;;;3.75;;
16634;SDS011;8431;52.458;9.998;2023-02-01T05:46:01;14.40;;;4.35;;
16634;SDS011;8431;52.458;9.998;2023-02-01T05:48:28;14.85;;;3.63;;
16634;SDS011;8431;52.458;9.998;2023-02-01T05:50:57;10.05;;;3.13;;
16634;SDS011;8431;52.458;9.998;2023-02-01T05:53:24;10.98;;;3.70;;
16634;SDS011;8431;52.458;9.998;2023-02-01T05:55:51;15.73;;;4.25;;
16634;SDS011;8431;52.458;9.998;2023-02-01T05:58:18;14.00;;;3.47;;
16634;SDS011;8431;52.458;9.998;2023-02-01T06:00:45;15.98;;;3.65;;
16634;SDS011;8431;52.458;9.998;2023-02-01T06:03:12;11.75;;;3.42;;
16634;SDS011;8431;52.458;9.998;2023-02-01T06:05:39;13.68;;;3.88;;
16634;SDS011;8431;52.458;9.998;2023-02-01T06:08:07;9.73;;;3.08;;
16634;SDS011;8431;52.458;9.998;2023-02-01T06:10:34;15.90;;;3.70;;
16634;SDS011;8431;52.458;9.998;2023-02-01T06:13:01;11.63;;;3.40;;
16634;SDS011;8431;52.458;9.998;2023-02-01T06:15:28;10.82;;;2.92;;
16634;SDS011;8431;52.458;9.998;2023-02-01T06:17:59;12.50;;;3.80;;
16634;SDS011;8431;52.458;9.998;2023-02-01T06:20:26;13.60;;;3.90;;
16634;SDS011;8431;52.458;9.998;2023-02-01T06:22:53;11.20;;;3.60;;
16634;SDS011;8431;52.458;9.998;2023-02-01T06:25:21;14.45;;;3.55;;
16634;SDS011;8431;52.458;9.998;2023-02-01T06:27:49;12.52;;;3.55;;
16634;SDS011;8431;52.458;9.998;2023-02-01T06:30:16;13.18;;;3.60;;
16634;SDS011;8431;52.458;9.998;2023-02-01T06:32:43;9.55;;;3.17;;
16634;SDS011;8431;52.458;9.998;2023-02-01T06:35:10;12.50;;;3.22;;
16634;SDS011;8431;52.458;9.998;2023-02-01T06:37:41;9.32;;;3.50;;
16634;SDS011;8431;52.458;9.998;2023-02-01T06:40:08;8.57;;;3.38;;
16634;SDS011;8431;52.458;9.998;2023-02-01T06:42:38;13.95;;;4.85;;
16634;SDS011;8431;52.458;9.998;2023-02-01T06:45:05;13.68;;;3.33;;
16634;SDS011;8431;52.458;9.998;2023-02-01T06:47:33;15.77;;;3.42;;
16634;SDS011;8431;52.458;9.998;2023-02-01T06:50:00;10.82;;;3.30;;
16634;SDS011;8431;52.458;9.998;2023-02-01T06:52:27;13.68;;;2.92;;
16634;SDS011;8431;52.458;9.998;2023-02-01T06:54:54;12.18;;;3.38;;
16634;SDS011;8431;52.458;9.998;2023-02-01T06:57:21;10.63;;;3.33;;
16634;SDS011;8431;52.458;9.998;2023-02-01T06:59:49;14.88;;;3.30;;
16634;SDS011;8431;52.458;9.998;2023-02-01T07:02:16;7.45;;;2.85;;
16634;SDS011;8431;52.458;9.998;2023-02-01T07:04:43;9.93;;;2.80;;
16634;SDS011;8431;52.458;9.998;2023-02-01T07:07:10;8.05;;;2.65;;
16634;SDS011;8431;52.458;9.998;2023-02-01T07:09:38;8.27;;;3.17;;
16634;SDS011;8431;52.458;9.998;2023-02-01T07:12:05;6.88;;;2.83;;
16634;SDS011;8431;52.458;9.998;2023-02-01T07:14:33;12.20;;;2.83;;
16634;SDS011;8431;52.458;9.998;2023-02-01T07:17:02;9.23;;;3.30;;
16634;SDS011;8431;52.458;9.998;2023-02-01T07:19:29;10.30;;;2.78;;
16634;SDS011;8431;52.458;9.998;2023-02-01T07:21:56;12.27;;;3.58;;
16634;SDS011;8431;52.458;9.998;2023-02-01T07:24:23;8.20;;;3.33;;
16634;SDS011;8431;52.458;9.998;2023-02-01T07:26:50;11.50;;;3.42;;
16634;SDS011;8431;52.458;9.998;2023-02-01T07:29:17;16.48;;;3.70;;
16634;SDS011;8431;52.458;9.998;2023-02-01T07:31:44;7.05;;;3.17;;
16634;SDS011;8431;52.458;9.998;2023-02-01T07:34:13;17.58;;;4.30;;
16634;SDS011;8431;52.458;9.998;2023-02-01T07:36:40;11.10;;;3.22;;
16634;SDS011;8431;52.458;9.998;2023-02-01T07:39:07;16.35;;;4.13;;
16634;SDS011;8431;52.458;9.998;2023-02-01T07:41:35;13.90;;;3.55;;
16634;SDS011;8431;52.458;9.998;2023-02-01T07:44:04;10.90;;;3.88;;
16634;SDS011;8431;52.458;9.998;2023-02-01T07:46:37;11.50;;;4.15;;
16634;SDS011;8431;52.458;9.998;2023-02-01T07:49:05;11.93;;;3.10;;
16634;SDS011;8431;52.458;9.998;2023-02-01T07:51:33;9.55;;;3.35;;
16634;SDS011;8431;52.458;9.998;2023-02-01T07:54:00;19.55;;;4.30;;
16634;SDS011;8431;52.458;9.998;2023-02-01T07:59:12;16.67;;;3.80;;
16634;SDS011;8431;52.458;9.998;2023-02-01T08:01:40;15.80;;;4.28;;
16634;SDS011;8431;52.458;9.998;2023-02-01T08:04:06;16.08;;;3.70;;
16634;SDS011;8431;52.458;9.998;2023-02-01T08:06:37;17.23;;;3.58;;
16634;SDS011;8431;52.458;9.998;2023-02-01T08:09:05;18.48;;;4.28;;
16634;SDS011;8431;52.458;9.998;2023-02-01T08:11:33;17.48;;;3.60;;
16634;SDS011;8431;52.458;9.998;2023-02-01T08:14:02;14.70;;;3.85;;
16634;SDS011;8431;52.458;9.998;2023-02-01T08:16:30;20.45;;;4.03;;
16634;SDS011;8431;52.458;9.998;2023-02-01T08:18:59;9.90;;;2.55;;
16634;SDS011;8431;52.458;9.998;2023-02-01T08:21:27;10.30;;;2.53;;
16634;SDS011;8431;52.458;9.998;2023-02-01T08:24:03;7.13;;;1.70;;
16634;SDS011;8431;52.458;9.998;2023-02-01T08:26:30;9.30;;;2.33;;
16634;SDS011;8431;52.458;9.998;2023-02-01T08:28:59;6.75;;;1.55;;
16634;SDS011;8431;52.458;9.998;2023-02-01T08:31:28;4.88;;;1.85;;
16634;SDS011;8431;52.458;9.998;2023-02-01T08:33:57;7.90;;;2.00;;
16634;SDS011;8431;52.458;9.998;2023-02-01T08:36:25;8.30;;;2.17;;
16634;SDS011;8431;52.458;9.998;2023-02-01T08:38:53;16.63;;;2.80;;
16634;SDS011;8431;52.458;9.998;2023-02-01T08:41:22;12.57;;;3.60;;
16634;SDS011;8431;52.458;9.998;2023-02-01T08:43:51;13.38;;;3.42;;
16634;SDS011;8431;52.458;9.998;2023-02-01T08:46:19;14.80;;;3.50;;
16634;SDS011;8431;52.458;9.998;2023-02-01T08:48:47;16.08;;;3.90;;
16634;SDS011;8431;52.458;9.998;2023-02-01T08:51:15;14.35;;;3.95;;
16634;SDS011;8431;52.458;9.998;2023-02-01T08:53:43;15.07;;;2.95;;
16634;SDS011;8431;52.458;9.998;2023-02-01T08:56:11;15.88;;;3.95;;
16634;SDS011;8431;52.458;9.998;2023-02-01T08:58:40;14.55;;;3.50;;
16634;SDS011;8431;52.458;9.998;2023-02-01T09:01:08;9.88;;;3.20;;
16634;SDS011;8431;52.458;9.998;2023-02-01T09:03:37;18.15;;;3.70;;
16634;SDS011;8431;52.458;9.998;2023-02-01T09:06:05;9.52;;;3.17;;
16634;SDS011;8431;52.458;9.998;2023-02-01T09:08:33;13.63;;;3.88;;
16634;SDS011;8431;52.458;9.998;2023-02-01T09:11:01;12.90;;;3.63;;
16634;SDS011;8431;52.458;9.998;2023-02-01T09:13:29;12.32;;;3.42;;
16634;SDS011;8431;52.458;9.998;2023-02-01T09:15:58;11.20;;;3.80;;
16634;SDS011;8431;52.458;9.998;2023-02-01T09:18:26;11.93;;;2.97;;
16634;SDS011;8431;52.458;9.998;2023-02-01T09:20:53;15.25;;;2.92;;
16634;SDS011;8431;52.458;9.998;2023-02-01T09:23:20;9.85;;;2.70;;
16634;SDS011;8431;52.458;9.998;2023-02-01T09:25:47;17.02;;;3.72;;
16634;SDS011;8431;52.458;9.998;2023-02-01T09:28:15;8.80;;;2.78;;
16634;SDS011;8431;52.458;9.998;2023-02-01T09:30:42;12.82;;;2.83;;
16634;SDS011;8431;52.458;9.998;2023-02-01T09:33:11;10.82;;;3.00;;
16634;SDS011;8431;52.458;9.998;2023-02-01T09:35:38;14.70;;;3.53;;
16634;SDS011;8431;52.458;9.998;2023-02-01T09:38:05;9.32;;;2.90;;
16634;SDS011;8431;52.458;9.998;2023-02-01T09:40:33;11.35;;;2.70;;
16634;SDS011;8431;52.458;9.998;2023-02-01T09:43:07;8.48;;;2.75;;
16634;SDS011;8431;52.458;9.998;2023-02-01T09:45:44;14.73;;;2.85;;
16634;SDS011;8431;52.458;9.998;2023-02-01T09:48:24;12.32;;;3.28;;
16634;SDS011;8431;52.458;9.998;2023-02-01T09:51:07;9.52;;;2.17;;
16634;SDS011;8431;52.458;9.998;2023-02-01T09:53:44;13.93;;;2.97;;
16634;SDS011;8431;52.458;9.998;2023-02-01T09:56:18;10.50;;;2.88;;
16634;SDS011;8431;52.458;9.998;2023-02-01T09:58:49;10.57;;;2.50;;
16634;SDS011;8431;52.458;9.998;2023-02-01T10:01:24;11.80;;;2.95;;
16634;SDS011;8431;52.458;9.998;2023-02-01T10:03:56;14.50;;;2.50;;
16634;SDS011;8431;52.458;9.998;2023-02-01T10:06:30;10.75;;;2.83;;
16634;SDS011;8431;52.458;9.998;2023-02-01T10:09:20;13.77;;;2.65;;
16634;SDS011;8431;52.458;9.998;2023-02-01T10:14:59;9.88;;;2.47;;
16634;SDS011;8431;52.458;9.998;2023-02-01T10:17:44;13.52;;;2.83;;
16634;SDS011;8431;52.458;9.998;2023-02-01T10:20:24;8.95;;;2.30;;
16634;SDS011;8431;52.458;9.998;2023-02-01T10:22:59;8.60;;;2.55;;
16634;SDS011;8431;52.458;9.998;2023-02-01T10:25:36;12.35;;;2.80;;
16634;SDS011;8431;52.458;9.998;2023-02-01T10:28:08;10.43;;;2.75;;
16634;SDS011;8431;52.458;9.998;2023-02-01T10:30:42;9.20;;;2.92;;
16634;SDS011;8431;52.458;9.998;2023-02-01T10:33:14;7.97;;;2.85;;
16634;SDS011;8431;52.458;9.998;2023-02-01T10:35:45;10.15;;;3.10;;
16634;SDS011;8431;52.458;9.998;2023-02-01T10:38:19;10.95;;;2.80;;
16634;SDS011;8431;52.458;9.998;2023-02-01T10:40:51;10.30;;;2.53;;
16634;SDS011;8431;52.458;9.998;2023-02-01T10:43:19;12.57;;;3.05;;
16634;SDS011;8431;52.458;9.998;2023-02-01T10:45:46;10.95;;;2.72;;
16634;SDS011;8431;52.458;9.998;2023-02-01T10:48:13;10.55;;;2.85;;
16634;SDS011;8431;52.458;9.998;2023-02-01T10:50:46;11.57;;;3.10;;
16634;SDS011;8431;52.458;9.998;2023-02-01T10:53:20;7.78;;;2.50;;
16634;SDS011;8431;52.458;9.998;2023-02-01T10:55:51;8.65;;;2.30;;
16634;SDS011;8431;52.458;9.998;2023-02-01T10:58:19;15.57;;;3.95;;
16634;SDS011;8431;52.458;9.998;2023-02-01T11:00:52;10.13;;;3.40;;
16634;SDS011;8431;52.458;9.998;2023-02-01T11:06:13;14.02;;;3.40;;
16634;SDS011;8431;52.458;9.998;2023-02-01T11:08:49;8.90;;;2.63;;
16634;SDS011;8431;52.458;9.998;2023-02-01T11:11:18;12.55;;;3.47;;
16634;SDS011;8431;52.458;9.998;2023-02-01T11:13:51;11.23;;;3.47;;
16634;SDS011;8431;52.458;9.998;2023-02-01T11:16:20;12.07;;;2.50;;
16634;SDS011;8431;52.458;9.998;2023-02-01T11:18:47;9.70;;;2.60;;
16634;SDS011;8431;52.458;9.998;2023-02-01T11:21:22;7.97;;;2.83;;
16634;SDS011;8431;52.458;9.998;2023-02-01T11:23:49;15.40;;;4.25;;
16634;SDS011;8431;52.458;9.998;2023-02-01T11:26:19;9.63;;;2.33;;
16634;SDS011;8431;52.458;9.998;2023-02-01T11:28:50;13.27;;;3.17;;
16634;SDS011;8431;52.458;9.998;2023-02-01T11:31:20;12.55;;;2.88;;
16634;SDS011;8431;52.458;9.998;2023-02-01T11:33:50;9.65;;;2.75;;
16634;SDS011;8431;52.458;9.998;2023-02-01T11:36:22;10.55;;;3.03;;
16634;SDS011;8431;52.458;9.998;2023-02-01T11:38:52;13.07;;;3.47;;
16634;SDS011;8431;52.458;9.998;2023-02-01T11:41:33;12.57;;;3.15;;
16634;SDS011;8431;52.458;9.998;2023-02-01T11:44:00;15.52;;;3.33;;
16634;SDS011;8431;52.458;9.998;2023-02-01T11:46:43;14.68;;;2.72;;
16634;SDS011;8431;52.458;9.998;2023-02-01T11:49:14;13.38;;;3.13;;
16634;SDS011;8431;52.458;9.998;2023-02-01T11:51:52;14.07;;;3.90;;
16634;SDS011;8431;52.458;9.998;2023-02-01T11:54:33;11.07;;;3.70;;
16634;SDS011;8431;52.458;9.998;2023-02-01T11:57:17;8.05;;;2.50;;
16634;SDS011;8431;52.458;9.998;2023-02-01T11:59:57;8.13;;;3.20;;
16634;SDS011;8431;52.458;9.998;2023-02-01T12:02:38;9.27;;;2.15;;
16634;SDS011;8431;52.458;9.998;2023-02-01T12:05:37;10.82;;;2.38;;
16634;SDS011;8431;52.458;9.998;2023-02-01T12:08:17;11.00;;;3.00;;
16634;SDS011;8431;52.458;9.998;2023-02-01T12:11:14;8.85;;;2.30;;
16634;SDS011;8431;52.458;9.998;2023-02-01T12:13:55;13.77;;;2.78;;
16634;SDS011;8431;52.458;9.998;2023-02-01T12:16:31;9.63;;;3.00;;
16634;SDS011;8431;52.458;9.998;2023-02-01T12:22:07;9.88;;;2.25;;
16634;SDS011;8431;52.458;9.998;2023-02-01T12:24:52;9.05;;;2.28;;
16634;SDS011;8431;52.458;9.998;2023-02-01T12:27:42;9.77;;;3.08;;
16634;SDS011;8431;52.458;9.998;2023-02-01T12:30:21;9.40;;;3.13;;
16634;SDS011;8431;52.458;9.998;2023-02-01T12:33:03;12.32;;;2.85;;
16634;SDS011;8431;52.458;9.998;2023-02-01T12:35:38;11.32;;;2.60;;
16634;SDS011;8431;52.458;9.998;2023-02-01T12:38:20;10.93;;;3.45;;
16634;SDS011;8431;52.458;9.998;2023-02-01T12:41:05;12.43;;;3.17;;
16634;SDS011;8431;52.458;9.998;2023-02-01T12:43:45;12.75;;;3.10;;
16634;SDS011;8431;52.458;9.998;2023-02-01T12:46:16;8.07;;;3.05;;
16634;SDS011;8431;52.458;9.998;2023-02-01T12:48:50;12.85;;;2.40;;
16634;SDS011;8431;52.458;9.998;2023-02-01T12:51:24;6.40;;;2.33;;
16634;SDS011;8431;52.458;9.998;2023-02-01T12:53:54;7.80;;;2.80;;
16634;SDS011;8431;52.458;9.998;2023-02-01T12:56:29;9.77;;;2.53;;
16634;SDS011;8431;52.458;9.998;2023-02-01T12:59:02;4.10;;;1.90;;
16634;SDS011;8431;52.458;9.998;2023-02-01T13:01:34;9.07;;;2.15;;
16634;SDS011;8431;52.458;9.998;2023-02-01T13:04:07;3.60;;;2.00;;
16634;SDS011;8431;52.458;9.998;2023-02-01T13:06:39;7.45;;;2.78;;
16634;SDS011;8431;52.458;9.998;2023-02-01T13:09:14;7.85;;;2.13;;
16634;SDS011;8431;52.458;9.998;2023-02-01T13:11:48;9.95;;;2.10;;
16634;SDS011;8431;52.458;9.998;2023-02-01T13:14:20;7.47;;;2.30;;
16634;SDS011;8431;52.458;9.998;2023-02-01T13:16:56;5.93;;;2.25;;
16634;SDS011;8431;52.458;9.998;2023-02-01T13:19:28;10.35;;;2.60;;
16634;SDS011;8431;52.458;9.998;2023-02-01T13:22:02;8.38;;;2.00;;
16634;SDS011;8431;52.458;9.998;2023-02-01T13:24:36;4.72;;;1.98;;
16634;SDS011;8431;52.458;9.998;2023-02-01T13:27:10;4.47;;;1.98;;
16634;SDS011;8431;52.458;9.998;2023-02-01T13:29:41;4.28;;;1.77;;
16634;SDS011;8431;52.458;9.998;2023-02-01T13:35:31;2.00;;;0.73;;
16634;SDS011;8431;52.458;9.998;2023-02-01T13:38:24;1.95;;;0.82;;
16634;SDS011;8431;52.458;9.998;2023-02-01T13:41:14;0.68;;;0.68;;
16634;SDS011;8431;52.458;9.998;2023-02-01T13:46:27;2.72;;;0.90;;
16634;SDS011;8431;52.458;9.998;2023-02-01T13:49:04;1.88;;;0.70;;
16634;SDS011;8431;52.458;9.998;2023-02-01T13:51:36;1.77;;;0.52;;
16634;SDS011;8431;52.458;9.998;2023-02-01T13:54:06;0.50;;;0.30;;
16634;SDS011;8431;52.458;9.998;2023-02-01T13:56:49;1.42;;;0.82;;
16634;SDS011;8431;52.458;9.998;2023-02-01T14:02:36;0.80;;;0.32;;
16634;SDS011;8431;52.458;9.998;2023-02-01T14:08:20;0.32;;;0.32;;
16634;SDS011;8431;52.458;9.998;2023-02-01T14:10:49;0.50;;;0.28;;
16634;SDS011;8431;52.458;9.998;2023-02-01T14:13:24;1.92;;;0.40;;
16634;SDS011;8431;52.458;9.998;2023-02-01T14:16:14;0.52;;;0.45;;
16634;SDS011;8431;52.458;9.998;2023-02-01T14:21:34;0.57;;;0.30;;
16634;SDS011;8431;52.458;9.998;2023-02-01T14:24:16;0.80;;;0.30;;
16634;SDS011;8431;52.458;9.998;2023-02-01T14:26:51;1.05;;;0.30;;
16634;SDS011;8431;52.458;9.998;2023-02-01T14:29:22;1.17;;;0.60;;
16634;SDS011;8431;52.458;9.998;2023-02-01T14:32:01;1.90;;;0.38;;
16634;SDS011;8431;52.458;9.998;2023-02-01T14:34:33;2.00;;;0.50;;
16634;SDS011;8431;52.458;9.998;2023-02-01T14:37:11;1.88;;;0.80;;
16634;SDS011;8431;52.458;9.998;2023-02-01T14:39:54;1.98;;;0.98;;
16634;SDS011;8431;52.458;9.998;2023-02-01T14:42:27;2.40;;;1.50;;
16634;SDS011;8431;52.458;9.998;2023-02-01T14:51:01;1.08;;;0.50;;
16634;SDS011;8431;52.458;9.998;2023-02-01T14:53:31;0.75;;;0.68;;
16634;SDS011;8431;52.458;9.998;2023-02-01T14:56:04;2.30;;;0.90;;
16634;SDS011;8431;52.458;9.998;2023-02-01T14:58:39;2.90;;;0.65;;
16634;SDS011;8431;52.458;9.998;2023-02-01T15:01:20;3.97;;;1.42;;
16634;SDS011;8431;52.458;9.998;2023-02-01T15:03:54;0.90;;;0.70;;
16634;SDS011;8431;52.458;9.998;2023-02-01T15:06:27;3.60;;;1.30;;
16634;SDS011;8431;52.458;9.998;2023-02-01T15:08:59;2.42;;;1.20;;
16634;SDS011;8431;52.458;9.998;2023-02-01T15:11:28;2.10;;;1.30;;
16634;SDS011;8431;52.458;9.998;2023-02-01T15:13:55;3.90;;;1.52;;
16634;SDS011;8431;52.458;9.998;2023-02-01T15:16:22;1.30;;;0.80;;
16634;SDS011;8431;52.458;9.998;2023-02-01T15:18:58;3.25;;;1.60;;
16634;SDS011;8431;52.458;9.998;2023-02-01T15:21:43;2.22;;;1.35;;
16634;SDS011;8431;52.458;9.998;2023-02-01T15:24:17;1.83;;;0.75;;
16634;SDS011;8431;52.458;9.998;2023-02-01T15:26:46;2.42;;;0.93;;
16634;SDS011;8431;52.458;9.998;2023-02-01T15:29:14;5.35;;;0.80;;
16634;SDS011;8431;52.458;9.998;2023-02-01T15:31:43;3.10;;;0.82;;
16634;SDS011;8431;52.458;9.998;2023-02-01T15:34:12;2.72;;;0.70;;
16634;SDS011;8431;52.458;9.998;2023-02-01T15:36:39;4.63;;;0.70;;
16634;SDS011;8431;52.458;9.998;2023-02-01T15:39:21;1.45;;;0.80;;
16634;SDS011;8431;52.458;9.998;2023-02-01T15:41:51;3.15;;;1.00;;
16634;SDS011;8431;52.458;9.998;2023-02-01T15:44:28;4.00;;;1.30;;
16634;SDS011;8431;52.458;9.998;2023-02-01T15:46:58;1.40;;;0.75;;
16634;SDS011;8431;52.458;9.998;2023-02-01T15:49:29;4.07;;;1.10;;
16634;SDS011;8431;52.458;9.998;2023-02-01T15:52:20;6.43;;;1.15;;
16634;SDS011;8431;52.458;9.998;2023-02-01T15:55:01;4.65;;;1.38;;
16634;SDS011;8431;52.458;9.998;2023-02-01T15:57:33;6.13;;;1.40;;
16634;SDS011;8431;52.458;9.998;2023-02-01T16:00:03;5.05;;;1.73;;
16634;SDS011;8431;52.458;9.998;2023-02-01T16:02:33;2.97;;;1.02;;
16634;SDS011;8431;52.458;9.998;2023-02-01T16:05:03;4.45;;;1.30;;
16634;SDS011;8431;52.458;9.998;2023-02-01T16:07:32;5.13;;;1.33;;
16634;SDS011;8431;52.458;9.998;2023-02-01T16:10:11;5.30;;;1.52;;